CCA8665 ZBAD-ZLLL
Flight info
| Callsign | CCA8665 |
|---|---|
| Flight time | 2h 3m |
| Altitude | 34100 |
| Route | PEGSO B215 OROXU |
| Aircraft | B77W/H-SDE1E2E3FGHIJ2J3J4J5M1RWXY/LB1D1 |
Departure
| Time | 2026-05-05 06:35 |
|---|---|
| Airport | Beijing Daxing International Airport (ZBAD) |
Arrival
| Time | 2026-05-05 08:39 |
|---|---|
| Airport | Lanzhou Zhongchuan International Airport (ZLLL) |
| Time | Latitude | Longitude | Altitude | Speed | Heading |
|---|---|---|---|---|---|
| 2026-05-05 06:18 | 39.50661 | 116.40853 | 96 ft | 2 kts | 49° |
| 2026-05-05 06:18 | 39.50652 | 116.40841 | 96 ft | 2 kts | 49° |
| 2026-05-05 06:18 | 39.50644 | 116.40828 | 97 ft | 2 kts | 49° |
| 2026-05-05 06:19 | 39.50638 | 116.40820 | 97 ft | 0 kts | 49° |
| 2026-05-05 06:21 | 39.50639 | 116.40821 | 96 ft | 1 kts | 49° |
| 2026-05-05 06:21 | 39.50647 | 116.40846 | 96 ft | 5 kts | 86° |
| 2026-05-05 06:22 | 39.50618 | 116.40897 | 96 ft | 11 kts | 154° |
| 2026-05-05 06:22 | 39.50537 | 116.40891 | 96 ft | 15 kts | 191° |
| 2026-05-05 06:22 | 39.50451 | 116.40883 | 96 ft | 14 kts | 173° |
| 2026-05-05 06:22 | 39.50342 | 116.40898 | 96 ft | 19 kts | 173° |
| 2026-05-05 06:23 | 39.50234 | 116.40916 | 96 ft | 9 kts | 172° |
| 2026-05-05 06:23 | 39.50179 | 116.40913 | 96 ft | 6 kts | 215° |
| 2026-05-05 06:23 | 39.50167 | 116.40868 | 96 ft | 5 kts | 265° |
| 2026-05-05 06:23 | 39.50164 | 116.40823 | 96 ft | 6 kts | 265° |
| 2026-05-05 06:24 | 39.50160 | 116.40768 | 96 ft | 7 kts | 263° |
| 2026-05-05 06:24 | 39.50154 | 116.40702 | 96 ft | 9 kts | 263° |
| 2026-05-05 06:24 | 39.50147 | 116.40619 | 96 ft | 11 kts | 263° |
| 2026-05-05 06:24 | 39.50137 | 116.40522 | 96 ft | 12 kts | 263° |
| 2026-05-05 06:25 | 39.50128 | 116.40421 | 96 ft | 12 kts | 262° |
| 2026-05-05 06:25 | 39.50118 | 116.40321 | 96 ft | 12 kts | 262° |
| 2026-05-05 06:25 | 39.50108 | 116.40220 | 96 ft | 12 kts | 262° |
| 2026-05-05 06:25 | 39.50102 | 116.40158 | 96 ft | 5 kts | 263° |
| 2026-05-05 06:26 | 39.50104 | 116.40123 | 96 ft | 3 kts | 305° |
| 2026-05-05 06:26 | 39.50126 | 116.40104 | 96 ft | 4 kts | 335° |
| 2026-05-05 06:26 | 39.50158 | 116.40092 | 96 ft | 5 kts | 352° |
| 2026-05-05 06:26 | 39.50198 | 116.40086 | 96 ft | 6 kts | 353° |
| 2026-05-05 06:27 | 39.50243 | 116.40079 | 96 ft | 8 kts | 353° |
| 2026-05-05 06:27 | 39.50377 | 116.40057 | 96 ft | 13 kts | 353° |
| 2026-05-05 06:27 | 39.50458 | 116.40045 | 96 ft | 13 kts | 353° |
| 2026-05-05 06:28 | 39.50543 | 116.40031 | 96 ft | 13 kts | 353° |
| 2026-05-05 06:28 | 39.50631 | 116.40018 | 96 ft | 15 kts | 352° |
| 2026-05-05 06:28 | 39.50732 | 116.40001 | 96 ft | 18 kts | 352° |
| 2026-05-05 06:28 | 39.50853 | 116.39981 | 96 ft | 21 kts | 352° |
| 2026-05-05 06:29 | 39.50987 | 116.39960 | 97 ft | 22 kts | 353° |
| 2026-05-05 06:29 | 39.51125 | 116.39939 | 96 ft | 21 kts | 353° |
| 2026-05-05 06:29 | 39.51257 | 116.39919 | 96 ft | 21 kts | 353° |
| 2026-05-05 06:29 | 39.51387 | 116.39898 | 96 ft | 20 kts | 352° |
| 2026-05-05 06:30 | 39.51511 | 116.39877 | 97 ft | 20 kts | 353° |
| 2026-05-05 06:30 | 39.51634 | 116.39858 | 97 ft | 19 kts | 353° |
| 2026-05-05 06:30 | 39.51737 | 116.39842 | 97 ft | 11 kts | 353° |
| 2026-05-05 06:30 | 39.51789 | 116.39825 | 97 ft | 6 kts | 309° |
| 2026-05-05 06:31 | 39.51795 | 116.39792 | 97 ft | 0 kts | 270° |
| 2026-05-05 06:32 | 39.51795 | 116.39788 | 97 ft | 1 kts | 269° |
| 2026-05-05 06:32 | 39.51794 | 116.39772 | 96 ft | 4 kts | 265° |
| 2026-05-05 06:32 | 39.51789 | 116.39716 | 96 ft | 9 kts | 262° |
| 2026-05-05 06:32 | 39.51783 | 116.39657 | 97 ft | 4 kts | 262° |
| 2026-05-05 06:33 | 39.51773 | 116.39634 | 96 ft | 3 kts | 216° |
| 2026-05-05 06:33 | 39.51754 | 116.39625 | 96 ft | 3 kts | 186° |
| 2026-05-05 06:33 | 39.51730 | 116.39626 | 97 ft | 4 kts | 174° |
| 2026-05-05 06:33 | 39.51722 | 116.39628 | 96 ft | 0 kts | 174° |
| 2026-05-05 06:34 | 39.51603 | 116.39644 | 97 ft | 52 kts | 173° |
| 2026-05-05 06:35 | 39.51030 | 116.39732 | 97 ft | 126 kts | 173° |
| 2026-05-05 06:35 | 39.50063 | 116.39893 | 289 ft | 170 kts | 172° |
| 2026-05-05 06:35 | 39.48941 | 116.40093 | 932 ft | 183 kts | 176° |
| 2026-05-05 06:35 | 39.47767 | 116.40252 | 2139 ft | 173 kts | 176° |
| 2026-05-05 06:36 | 39.46684 | 116.40397 | 2975 ft | 169 kts | 178° |
| 2026-05-05 06:36 | 39.45568 | 116.40552 | 3547 ft | 180 kts | 177° |
| 2026-05-05 06:36 | 39.44372 | 116.40736 | 4109 ft | 192 kts | 177° |
| 2026-05-05 06:36 | 39.43024 | 116.40935 | 4736 ft | 205 kts | 177° |
| 2026-05-05 06:37 | 39.41522 | 116.41172 | 5269 ft | 225 kts | 175° |
| 2026-05-05 06:37 | 39.39926 | 116.41449 | 5875 ft | 241 kts | 176° |
| 2026-05-05 06:37 | 39.38205 | 116.41700 | 6576 ft | 253 kts | 177° |
| 2026-05-05 06:37 | 39.36428 | 116.41882 | 7342 ft | 260 kts | 185° |
| 2026-05-05 06:38 | 39.34650 | 116.41360 | 7736 ft | 263 kts | 206° |
| 2026-05-05 06:38 | 39.33170 | 116.39977 | 7799 ft | 264 kts | 228° |
| 2026-05-05 06:38 | 39.32184 | 116.37963 | 7807 ft | 264 kts | 241° |
| 2026-05-05 06:38 | 39.31379 | 116.35915 | 7808 ft | 264 kts | 241° |
| 2026-05-05 06:39 | 39.30529 | 116.33841 | 7802 ft | 264 kts | 240° |
| 2026-05-05 06:39 | 39.29659 | 116.31780 | 7813 ft | 264 kts | 239° |
| 2026-05-05 06:39 | 39.28786 | 116.29735 | 7813 ft | 264 kts | 239° |
| 2026-05-05 06:39 | 39.27901 | 116.27662 | 7814 ft | 264 kts | 239° |
| 2026-05-05 06:40 | 39.27019 | 116.25600 | 7810 ft | 265 kts | 239° |
| 2026-05-05 06:40 | 39.26165 | 116.23604 | 7800 ft | 265 kts | 239° |
| 2026-05-05 06:40 | 39.25320 | 116.21629 | 7805 ft | 265 kts | 239° |
| 2026-05-05 06:40 | 39.24444 | 116.19584 | 7804 ft | 260 kts | 239° |
| 2026-05-05 06:41 | 39.23562 | 116.17528 | 7806 ft | 266 kts | 239° |
| 2026-05-05 06:41 | 39.22677 | 116.15462 | 7812 ft | 266 kts | 239° |
| 2026-05-05 06:41 | 39.21785 | 116.13384 | 7803 ft | 265 kts | 239° |
| 2026-05-05 06:41 | 39.20891 | 116.11304 | 7804 ft | 266 kts | 239° |
| 2026-05-05 06:42 | 39.20008 | 116.09249 | 7823 ft | 275 kts | 239° |
| 2026-05-05 06:42 | 39.19119 | 116.07181 | 8641 ft | 279 kts | 240° |
| 2026-05-05 06:42 | 39.18269 | 116.05203 | 9726 ft | 272 kts | 240° |
| 2026-05-05 06:42 | 39.17371 | 116.03116 | 10500 ft | 280 kts | 240° |
| 2026-05-05 06:43 | 39.16442 | 116.00958 | 11008 ft | 298 kts | 241° |
| 2026-05-05 06:43 | 39.15411 | 115.98564 | 11549 ft | 316 kts | 242° |
| 2026-05-05 06:43 | 39.14324 | 115.96050 | 12169 ft | 334 kts | 242° |
| 2026-05-05 06:43 | 39.13199 | 115.93451 | 12784 ft | 351 kts | 242° |
| 2026-05-05 06:44 | 39.11990 | 115.90661 | 13702 ft | 362 kts | 243° |
| 2026-05-05 06:44 | 39.10760 | 115.87828 | 14891 ft | 366 kts | 243° |
| 2026-05-05 06:44 | 39.09539 | 115.85016 | 16130 ft | 369 kts | 243° |
| 2026-05-05 06:44 | 39.08289 | 115.82139 | 17244 ft | 376 kts | 243° |
| 2026-05-05 06:45 | 39.07017 | 115.79218 | 18342 ft | 382 kts | 243° |
| 2026-05-05 06:45 | 39.05732 | 115.76264 | 19502 ft | 386 kts | 243° |
| 2026-05-05 06:45 | 39.04424 | 115.73265 | 20625 ft | 391 kts | 243° |
| 2026-05-05 06:45 | 39.03152 | 115.70347 | 21674 ft | 396 kts | 244° |
| 2026-05-05 06:46 | 39.01820 | 115.67297 | 22699 ft | 401 kts | 244° |
| 2026-05-05 06:46 | 39.00481 | 115.64234 | 23709 ft | 406 kts | 244° |
| 2026-05-05 06:46 | 38.99123 | 115.61128 | 24594 ft | 413 kts | 244° |
| 2026-05-05 06:46 | 38.97717 | 115.57916 | 25391 ft | 421 kts | 245° |
| 2026-05-05 06:47 | 38.96314 | 115.54716 | 26209 ft | 426 kts | 245° |
| 2026-05-05 06:47 | 38.94862 | 115.51407 | 27003 ft | 433 kts | 245° |
| 2026-05-05 06:47 | 38.93523 | 115.48217 | 27715 ft | 437 kts | 249° |
| 2026-05-05 06:47 | 38.92337 | 115.44795 | 28483 ft | 441 kts | 251° |
| 2026-05-05 06:48 | 38.91194 | 115.41431 | 29260 ft | 444 kts | 251° |
| 2026-05-05 06:48 | 38.90050 | 115.38093 | 30184 ft | 444 kts | 252° |
| 2026-05-05 06:48 | 38.88892 | 115.34739 | 31166 ft | 440 kts | 251° |
| 2026-05-05 06:48 | 38.87754 | 115.31463 | 32033 ft | 438 kts | 252° |
| 2026-05-05 06:49 | 38.86623 | 115.28215 | 32783 ft | 437 kts | 252° |
| 2026-05-05 06:49 | 38.85478 | 115.24943 | 33468 ft | 437 kts | 252° |
| 2026-05-05 06:49 | 38.84338 | 115.21687 | 33755 ft | 441 kts | 252° |
| 2026-05-05 06:50 | 38.82029 | 115.15128 | 33768 ft | 436 kts | 252° |
| 2026-05-05 06:50 | 38.79752 | 115.08679 | 33762 ft | 438 kts | 252° |
| 2026-05-05 06:51 | 38.77462 | 115.02214 | 33758 ft | 436 kts | 252° |
| 2026-05-05 06:51 | 38.75164 | 114.95742 | 33758 ft | 437 kts | 252° |
| 2026-05-05 06:52 | 38.72864 | 114.89269 | 33758 ft | 437 kts | 253° |
| 2026-05-05 06:52 | 38.70571 | 114.82830 | 33756 ft | 436 kts | 252° |
| 2026-05-05 06:53 | 38.68299 | 114.76469 | 33759 ft | 434 kts | 253° |
| 2026-05-05 06:53 | 38.66016 | 114.70083 | 33767 ft | 436 kts | 252° |
| 2026-05-05 06:54 | 38.63752 | 114.63769 | 33772 ft | 434 kts | 252° |
| 2026-05-05 06:54 | 38.61485 | 114.57472 | 33778 ft | 434 kts | 252° |
| 2026-05-05 06:55 | 38.59277 | 114.51402 | 33784 ft | 432 kts | 252° |
| 2026-05-05 06:55 | 38.57081 | 114.45335 | 33780 ft | 435 kts | 252° |
| 2026-05-05 06:56 | 38.54884 | 114.39275 | 33776 ft | 431 kts | 252° |
| 2026-05-05 06:56 | 38.52697 | 114.33250 | 33786 ft | 433 kts | 252° |
| 2026-05-05 06:57 | 38.50525 | 114.27280 | 33779 ft | 432 kts | 252° |
| 2026-05-05 06:57 | 38.48345 | 114.21302 | 33782 ft | 431 kts | 252° |
| 2026-05-05 06:58 | 38.46128 | 114.15232 | 33785 ft | 432 kts | 252° |
| 2026-05-05 06:58 | 38.43915 | 114.09187 | 33794 ft | 431 kts | 252° |
| 2026-05-05 06:59 | 38.41655 | 114.03025 | 33796 ft | 433 kts | 252° |
| 2026-05-05 06:59 | 38.39328 | 113.96684 | 33800 ft | 431 kts | 252° |
| 2026-05-05 07:00 | 38.37022 | 113.90411 | 33811 ft | 431 kts | 252° |
| 2026-05-05 07:00 | 38.34702 | 113.84116 | 33832 ft | 430 kts | 252° |
| 2026-05-05 07:01 | 38.32375 | 113.77871 | 33842 ft | 432 kts | 251° |
| 2026-05-05 07:01 | 38.30015 | 113.71619 | 33868 ft | 433 kts | 251° |
| 2026-05-05 07:02 | 38.27643 | 113.65340 | 33894 ft | 432 kts | 251° |
| 2026-05-05 07:02 | 38.25280 | 113.59100 | 33919 ft | 430 kts | 251° |
| 2026-05-05 07:03 | 38.22928 | 113.52894 | 33944 ft | 432 kts | 252° |
| 2026-05-05 07:03 | 38.20538 | 113.46604 | 33962 ft | 432 kts | 251° |
| 2026-05-05 07:04 | 38.18166 | 113.40374 | 33978 ft | 432 kts | 251° |
| 2026-05-05 07:04 | 38.15787 | 113.34114 | 34006 ft | 430 kts | 251° |
| 2026-05-05 07:05 | 38.13456 | 113.27846 | 34026 ft | 429 kts | 252° |
| 2026-05-05 07:05 | 38.11134 | 113.21613 | 34035 ft | 429 kts | 252° |
| 2026-05-05 07:06 | 38.08801 | 113.15369 | 34035 ft | 431 kts | 251° |
| 2026-05-05 07:06 | 38.06483 | 113.09183 | 34039 ft | 429 kts | 252° |
| 2026-05-05 07:07 | 38.04154 | 113.02978 | 34038 ft | 429 kts | 252° |
| 2026-05-05 07:07 | 38.01828 | 112.96796 | 34032 ft | 430 kts | 252° |
| 2026-05-05 07:08 | 37.99508 | 112.90640 | 34022 ft | 431 kts | 252° |
| 2026-05-05 07:08 | 37.97196 | 112.84521 | 34005 ft | 431 kts | 252° |
| 2026-05-05 07:09 | 37.94849 | 112.78323 | 33992 ft | 430 kts | 252° |
| 2026-05-05 07:09 | 37.92611 | 112.72423 | 33978 ft | 431 kts | 252° |
| 2026-05-05 07:10 | 37.90349 | 112.66471 | 33955 ft | 430 kts | 252° |
| 2026-05-05 07:10 | 37.88117 | 112.60607 | 33920 ft | 431 kts | 252° |
| 2026-05-05 07:11 | 37.85770 | 112.54755 | 33910 ft | 432 kts | 250° |
| 2026-05-05 07:11 | 37.83293 | 112.48948 | 33897 ft | 434 kts | 249° |
| 2026-05-05 07:12 | 37.80789 | 112.43072 | 33922 ft | 433 kts | 249° |
| 2026-05-05 07:12 | 37.78669 | 112.37067 | 33941 ft | 420 kts | 262° |
| 2026-05-05 07:13 | 37.77979 | 112.30712 | 33974 ft | 414 kts | 277° |
| 2026-05-05 07:13 | 37.78452 | 112.24517 | 34005 ft | 402 kts | 282° |
| 2026-05-05 07:14 | 37.79041 | 112.18454 | 34023 ft | 404 kts | 282° |
| 2026-05-05 07:14 | 37.79627 | 112.12386 | 34026 ft | 402 kts | 282° |
| 2026-05-05 07:15 | 37.80213 | 112.06273 | 34029 ft | 404 kts | 282° |
| 2026-05-05 07:15 | 37.80790 | 112.00223 | 34029 ft | 401 kts | 282° |
| 2026-05-05 07:16 | 37.81365 | 111.94160 | 34028 ft | 402 kts | 282° |
| 2026-05-05 07:16 | 37.81938 | 111.88085 | 34024 ft | 400 kts | 282° |
| 2026-05-05 07:17 | 37.82509 | 111.81993 | 34025 ft | 402 kts | 282° |
| 2026-05-05 07:17 | 37.83075 | 111.75920 | 34020 ft | 398 kts | 282° |
| 2026-05-05 07:18 | 37.83638 | 111.69941 | 34018 ft | 398 kts | 283° |
| 2026-05-05 07:18 | 37.84306 | 111.63902 | 34015 ft | 399 kts | 283° |
| 2026-05-05 07:19 | 37.84972 | 111.57857 | 34012 ft | 399 kts | 283° |
| 2026-05-05 07:19 | 37.85632 | 111.51823 | 34010 ft | 399 kts | 283° |
| 2026-05-05 07:20 | 37.86236 | 111.45694 | 34005 ft | 398 kts | 282° |
| 2026-05-05 07:20 | 37.86764 | 111.39595 | 33999 ft | 400 kts | 281° |
| 2026-05-05 07:21 | 37.87296 | 111.33448 | 34005 ft | 399 kts | 281° |
| 2026-05-05 07:21 | 37.87826 | 111.27338 | 34002 ft | 402 kts | 281° |
| 2026-05-05 07:22 | 37.88353 | 111.21227 | 33998 ft | 401 kts | 281° |
| 2026-05-05 07:22 | 37.88879 | 111.15102 | 33976 ft | 402 kts | 281° |
| 2026-05-05 07:23 | 37.89391 | 111.09100 | 33966 ft | 402 kts | 281° |
| 2026-05-05 07:23 | 37.89900 | 111.03109 | 33947 ft | 400 kts | 281° |
| 2026-05-05 07:24 | 37.90409 | 110.97070 | 33930 ft | 400 kts | 281° |
| 2026-05-05 07:24 | 37.90922 | 110.90966 | 33919 ft | 400 kts | 281° |
| 2026-05-05 07:25 | 37.91427 | 110.84914 | 33914 ft | 400 kts | 281° |
| 2026-05-05 07:25 | 37.91920 | 110.78942 | 33901 ft | 396 kts | 282° |
| 2026-05-05 07:26 | 37.92415 | 110.72945 | 33902 ft | 400 kts | 281° |
| 2026-05-05 07:26 | 37.92914 | 110.66844 | 33890 ft | 398 kts | 282° |
| 2026-05-05 07:27 | 37.93500 | 110.60798 | 33897 ft | 399 kts | 283° |
| 2026-05-05 07:27 | 37.94118 | 110.54798 | 33891 ft | 397 kts | 283° |
| 2026-05-05 07:28 | 37.94726 | 110.48819 | 33885 ft | 396 kts | 283° |
| 2026-05-05 07:28 | 37.95317 | 110.42965 | 33899 ft | 397 kts | 283° |
| 2026-05-05 07:29 | 37.95910 | 110.37030 | 33900 ft | 394 kts | 283° |
| 2026-05-05 07:29 | 37.96498 | 110.31131 | 33916 ft | 397 kts | 282° |
| 2026-05-05 07:30 | 37.97076 | 110.25265 | 33916 ft | 394 kts | 283° |
| 2026-05-05 07:30 | 37.97944 | 110.16431 | 33905 ft | 395 kts | 283° |
| 2026-05-05 07:31 | 37.98513 | 110.10590 | 33889 ft | 395 kts | 282° |
| 2026-05-05 07:31 | 37.99082 | 110.04726 | 33876 ft | 394 kts | 283° |
| 2026-05-05 07:32 | 37.99644 | 109.98899 | 33864 ft | 394 kts | 283° |
| 2026-05-05 07:32 | 38.00207 | 109.93026 | 33866 ft | 393 kts | 283° |
| 2026-05-05 07:33 | 38.00771 | 109.87125 | 33863 ft | 394 kts | 282° |
| 2026-05-05 07:33 | 38.01331 | 109.81216 | 33860 ft | 392 kts | 283° |
| 2026-05-05 07:34 | 38.01891 | 109.75288 | 33863 ft | 393 kts | 283° |
| 2026-05-05 07:34 | 38.02450 | 109.69336 | 33876 ft | 394 kts | 282° |
| 2026-05-05 07:35 | 38.03005 | 109.63392 | 33870 ft | 393 kts | 282° |
| 2026-05-05 07:35 | 38.03553 | 109.57483 | 33883 ft | 391 kts | 282° |
| 2026-05-05 07:36 | 38.04096 | 109.51602 | 33877 ft | 389 kts | 282° |
| 2026-05-05 07:36 | 38.04638 | 109.45702 | 33886 ft | 391 kts | 283° |
| 2026-05-05 07:37 | 38.05182 | 109.39745 | 33882 ft | 390 kts | 283° |
| 2026-05-05 07:37 | 38.05725 | 109.33768 | 33897 ft | 391 kts | 282° |
| 2026-05-05 07:38 | 38.06266 | 109.27773 | 33895 ft | 391 kts | 282° |
| 2026-05-05 07:38 | 38.06807 | 109.21749 | 33901 ft | 390 kts | 282° |
| 2026-05-05 07:39 | 38.07336 | 109.15826 | 33902 ft | 389 kts | 282° |
| 2026-05-05 07:39 | 38.07860 | 109.09931 | 33902 ft | 389 kts | 282° |
| 2026-05-05 07:40 | 38.08385 | 109.03988 | 33897 ft | 388 kts | 282° |
| 2026-05-05 07:40 | 38.08904 | 108.98077 | 33893 ft | 386 kts | 282° |
| 2026-05-05 07:41 | 38.09421 | 108.92161 | 33888 ft | 387 kts | 282° |
| 2026-05-05 07:41 | 38.09934 | 108.86258 | 33891 ft | 388 kts | 282° |
| 2026-05-05 07:42 | 38.10440 | 108.80399 | 33908 ft | 389 kts | 282° |
| 2026-05-05 07:42 | 38.10938 | 108.74579 | 33915 ft | 387 kts | 282° |
| 2026-05-05 07:43 | 38.11443 | 108.68662 | 33922 ft | 388 kts | 282° |
| 2026-05-05 07:43 | 38.11940 | 108.62803 | 33923 ft | 386 kts | 282° |
| 2026-05-05 07:44 | 38.12437 | 108.56904 | 33921 ft | 385 kts | 282° |
| 2026-05-05 07:44 | 38.12938 | 108.50912 | 33932 ft | 386 kts | 282° |
| 2026-05-05 07:45 | 38.13446 | 108.44817 | 33939 ft | 385 kts | 282° |
| 2026-05-05 07:45 | 38.13938 | 108.38870 | 33933 ft | 386 kts | 282° |
| 2026-05-05 07:46 | 38.14418 | 108.33025 | 33950 ft | 383 kts | 281° |
| 2026-05-05 07:46 | 38.14949 | 108.27063 | 33960 ft | 385 kts | 282° |
| 2026-05-05 07:47 | 38.15546 | 108.21140 | 33953 ft | 384 kts | 283° |
| 2026-05-05 07:47 | 38.16126 | 108.15321 | 33957 ft | 384 kts | 282° |
| 2026-05-05 07:48 | 38.16707 | 108.09428 | 33955 ft | 384 kts | 282° |
| 2026-05-05 07:48 | 38.17271 | 108.03668 | 33961 ft | 384 kts | 282° |
| 2026-05-05 07:49 | 38.17826 | 107.97959 | 33961 ft | 383 kts | 282° |
| 2026-05-05 07:49 | 38.18389 | 107.92128 | 33963 ft | 382 kts | 282° |
| 2026-05-05 07:50 | 38.18962 | 107.86176 | 33956 ft | 382 kts | 282° |
| 2026-05-05 07:50 | 38.19536 | 107.80169 | 33960 ft | 383 kts | 282° |
| 2026-05-05 07:51 | 38.20110 | 107.74143 | 33951 ft | 381 kts | 282° |
| 2026-05-05 07:51 | 38.20773 | 107.68353 | 33952 ft | 380 kts | 283° |
| 2026-05-05 07:52 | 38.21450 | 107.62515 | 33947 ft | 381 kts | 283° |
| 2026-05-05 07:52 | 38.22115 | 107.56708 | 33944 ft | 378 kts | 283° |
| 2026-05-05 07:53 | 38.22777 | 107.50884 | 33942 ft | 382 kts | 283° |
| 2026-05-05 07:53 | 38.23439 | 107.45016 | 33938 ft | 380 kts | 283° |
| 2026-05-05 07:54 | 38.24095 | 107.39181 | 33947 ft | 380 kts | 283° |
| 2026-05-05 07:54 | 38.24752 | 107.33307 | 33964 ft | 380 kts | 282° |
| 2026-05-05 07:55 | 38.25404 | 107.27444 | 33970 ft | 381 kts | 282° |
| 2026-05-05 07:55 | 38.26053 | 107.21582 | 33973 ft | 381 kts | 282° |
| 2026-05-05 07:56 | 38.26705 | 107.15663 | 33972 ft | 380 kts | 282° |
| 2026-05-05 07:56 | 38.27345 | 107.09828 | 33977 ft | 381 kts | 282° |
| 2026-05-05 07:57 | 38.27981 | 107.04001 | 33972 ft | 379 kts | 282° |
| 2026-05-05 07:57 | 38.28620 | 106.98124 | 33975 ft | 381 kts | 282° |
| 2026-05-05 07:58 | 38.29243 | 106.92356 | 33963 ft | 379 kts | 282° |
| 2026-05-05 07:58 | 38.29878 | 106.86461 | 33956 ft | 381 kts | 282° |
| 2026-05-05 07:59 | 38.30515 | 106.80505 | 33954 ft | 378 kts | 281° |
| 2026-05-05 07:59 | 38.31147 | 106.74579 | 33953 ft | 380 kts | 281° |
| 2026-05-05 08:00 | 38.31768 | 106.68716 | 33942 ft | 379 kts | 282° |
| 2026-05-05 08:00 | 38.32376 | 106.62962 | 33933 ft | 378 kts | 282° |
| 2026-05-05 08:01 | 38.32980 | 106.57214 | 33922 ft | 379 kts | 281° |
| 2026-05-05 08:01 | 38.33593 | 106.51341 | 33915 ft | 379 kts | 281° |
| 2026-05-05 08:02 | 38.34219 | 106.45324 | 33914 ft | 380 kts | 281° |
| 2026-05-05 08:02 | 38.35113 | 106.39494 | 33899 ft | 376 kts | 291° |
| 2026-05-05 08:03 | 38.36741 | 106.33999 | 33920 ft | 375 kts | 292° |
| 2026-05-05 08:03 | 38.38361 | 106.28601 | 33923 ft | 375 kts | 292° |
| 2026-05-05 08:04 | 38.39989 | 106.23151 | 33918 ft | 375 kts | 291° |
| 2026-05-05 08:04 | 38.41426 | 106.17650 | 33920 ft | 374 kts | 283° |
| 2026-05-05 08:05 | 38.41566 | 106.11842 | 33905 ft | 385 kts | 267° |
| 2026-05-05 08:05 | 38.40109 | 106.06038 | 33912 ft | 397 kts | 249° |
| 2026-05-05 08:06 | 38.37293 | 106.00862 | 33942 ft | 412 kts | 241° |
| 2026-05-05 08:06 | 38.34271 | 105.95827 | 33920 ft | 410 kts | 241° |
| 2026-05-05 08:07 | 38.31302 | 105.90881 | 33944 ft | 409 kts | 241° |
| 2026-05-05 08:07 | 38.28250 | 105.85792 | 33963 ft | 410 kts | 241° |
| 2026-05-05 08:08 | 38.25198 | 105.80714 | 33976 ft | 407 kts | 240° |
| 2026-05-05 08:08 | 38.22160 | 105.75658 | 33989 ft | 408 kts | 241° |
| 2026-05-05 08:09 | 38.19112 | 105.70596 | 33977 ft | 411 kts | 241° |
| 2026-05-05 08:09 | 38.16047 | 105.65515 | 33962 ft | 406 kts | 241° |
| 2026-05-05 08:10 | 38.12930 | 105.60352 | 33963 ft | 410 kts | 240° |
| 2026-05-05 08:10 | 38.09892 | 105.55330 | 33958 ft | 409 kts | 240° |
| 2026-05-05 08:11 | 38.06762 | 105.50163 | 33950 ft | 407 kts | 240° |
| 2026-05-05 08:11 | 38.03596 | 105.44946 | 33942 ft | 406 kts | 240° |
| 2026-05-05 08:12 | 38.00403 | 105.39691 | 33946 ft | 406 kts | 240° |
| 2026-05-05 08:12 | 37.97237 | 105.34489 | 33924 ft | 405 kts | 240° |
| 2026-05-05 08:13 | 37.94030 | 105.29223 | 33948 ft | 408 kts | 240° |
| 2026-05-05 08:13 | 37.90838 | 105.23994 | 33948 ft | 407 kts | 239° |
| 2026-05-05 08:14 | 37.87715 | 105.18887 | 33946 ft | 406 kts | 239° |
| 2026-05-05 08:14 | 37.84703 | 105.13968 | 33953 ft | 406 kts | 240° |
| 2026-05-05 08:15 | 37.81602 | 105.08908 | 33953 ft | 408 kts | 239° |
| 2026-05-05 08:15 | 37.78646 | 105.04100 | 33746 ft | 402 kts | 239° |
| 2026-05-05 08:16 | 37.77176 | 105.01710 | 33475 ft | 402 kts | 239° |
| 2026-05-05 08:16 | 37.75693 | 104.99297 | 33115 ft | 406 kts | 239° |
| 2026-05-05 08:16 | 37.74203 | 104.96873 | 32711 ft | 410 kts | 239° |
| 2026-05-05 08:16 | 37.72619 | 104.94300 | 32326 ft | 414 kts | 239° |
| 2026-05-05 08:17 | 37.71061 | 104.91772 | 32039 ft | 415 kts | 239° |
| 2026-05-05 08:17 | 37.69488 | 104.89225 | 31821 ft | 415 kts | 239° |
| 2026-05-05 08:17 | 37.67867 | 104.86601 | 31590 ft | 416 kts | 238° |
| 2026-05-05 08:17 | 37.66266 | 104.84011 | 31351 ft | 417 kts | 238° |
| 2026-05-05 08:18 | 37.64635 | 104.81375 | 31102 ft | 418 kts | 238° |
| 2026-05-05 08:18 | 37.63001 | 104.78737 | 30900 ft | 417 kts | 238° |
| 2026-05-05 08:18 | 37.61380 | 104.76121 | 30641 ft | 419 kts | 238° |
| 2026-05-05 08:18 | 37.59763 | 104.73511 | 30410 ft | 420 kts | 237° |
| 2026-05-05 08:19 | 37.58114 | 104.70854 | 30283 ft | 418 kts | 238° |
| 2026-05-05 08:19 | 37.56443 | 104.68166 | 30163 ft | 416 kts | 237° |
| 2026-05-05 08:19 | 37.54776 | 104.65485 | 30016 ft | 415 kts | 237° |
| 2026-05-05 08:19 | 37.53073 | 104.62747 | 29848 ft | 414 kts | 238° |
| 2026-05-05 08:20 | 37.51403 | 104.60066 | 29705 ft | 413 kts | 237° |
| 2026-05-05 08:20 | 37.49731 | 104.57384 | 29613 ft | 411 kts | 237° |
| 2026-05-05 08:20 | 37.48047 | 104.54683 | 29435 ft | 411 kts | 237° |
| 2026-05-05 08:20 | 37.46399 | 104.52041 | 29230 ft | 412 kts | 237° |
| 2026-05-05 08:21 | 37.44743 | 104.49386 | 29038 ft | 412 kts | 237° |
| 2026-05-05 08:21 | 37.43118 | 104.46703 | 28916 ft | 409 kts | 238° |
| 2026-05-05 08:21 | 37.41550 | 104.44098 | 28747 ft | 404 kts | 238° |
| 2026-05-05 08:21 | 37.39955 | 104.41447 | 28377 ft | 402 kts | 238° |
| 2026-05-05 08:22 | 37.38522 | 104.39070 | 27942 ft | 403 kts | 238° |
| 2026-05-05 08:22 | 37.37100 | 104.36712 | 27525 ft | 403 kts | 237° |
| 2026-05-05 08:22 | 37.35653 | 104.34318 | 27155 ft | 401 kts | 237° |
| 2026-05-05 08:22 | 37.34232 | 104.31969 | 26869 ft | 398 kts | 237° |
| 2026-05-05 08:23 | 37.32795 | 104.29595 | 26591 ft | 395 kts | 237° |
| 2026-05-05 08:23 | 37.31325 | 104.27196 | 26266 ft | 394 kts | 234° |
| 2026-05-05 08:23 | 37.29658 | 104.25043 | 25968 ft | 397 kts | 225° |
| 2026-05-05 08:23 | 37.27726 | 104.23244 | 25661 ft | 400 kts | 216° |
| 2026-05-05 08:24 | 37.25542 | 104.21832 | 25340 ft | 405 kts | 207° |
| 2026-05-05 08:24 | 37.23224 | 104.20892 | 25034 ft | 409 kts | 198° |
| 2026-05-05 08:24 | 37.20716 | 104.20412 | 24713 ft | 412 kts | 189° |
| 2026-05-05 08:24 | 37.18140 | 104.20451 | 24327 ft | 416 kts | 179° |
| 2026-05-05 08:25 | 37.15603 | 104.21019 | 23904 ft | 420 kts | 169° |
| 2026-05-05 08:25 | 37.13148 | 104.21936 | 23532 ft | 420 kts | 167° |
| 2026-05-05 08:25 | 37.10636 | 104.22917 | 23118 ft | 418 kts | 167° |
| 2026-05-05 08:25 | 37.08080 | 104.23907 | 22707 ft | 417 kts | 167° |
| 2026-05-05 08:26 | 37.05495 | 104.24895 | 22350 ft | 414 kts | 167° |
| 2026-05-05 08:26 | 37.02903 | 104.25878 | 22013 ft | 411 kts | 167° |
| 2026-05-05 08:26 | 37.00215 | 104.26891 | 21652 ft | 408 kts | 167° |
| 2026-05-05 08:26 | 36.97580 | 104.27879 | 21317 ft | 404 kts | 167° |
| 2026-05-05 08:27 | 36.95063 | 104.28606 | 20971 ft | 392 kts | 176° |
| 2026-05-05 08:27 | 36.92568 | 104.28773 | 20639 ft | 380 kts | 186° |
| 2026-05-05 08:27 | 36.90281 | 104.28416 | 20379 ft | 367 kts | 196° |
| 2026-05-05 08:27 | 36.88032 | 104.27441 | 20280 ft | 363 kts | 209° |
| 2026-05-05 08:28 | 36.85947 | 104.25832 | 20085 ft | 373 kts | 221° |
| 2026-05-05 08:28 | 36.84161 | 104.23679 | 19526 ft | 374 kts | 233° |
| 2026-05-05 08:28 | 36.82662 | 104.21227 | 18699 ft | 374 kts | 235° |
| 2026-05-05 08:28 | 36.81166 | 104.18681 | 17774 ft | 369 kts | 234° |
| 2026-05-05 08:29 | 36.79914 | 104.16141 | 16901 ft | 363 kts | 245° |
| 2026-05-05 08:29 | 36.79045 | 104.13446 | 16279 ft | 353 kts | 252° |
| 2026-05-05 08:29 | 36.78494 | 104.10752 | 15941 ft | 339 kts | 258° |
| 2026-05-05 08:30 | 36.78156 | 104.05334 | 15107 ft | 353 kts | 272° |
| 2026-05-05 08:30 | 36.78350 | 104.02446 | 14622 ft | 355 kts | 276° |
| 2026-05-05 08:30 | 36.78638 | 103.99535 | 14178 ft | 352 kts | 277° |
| 2026-05-05 08:30 | 36.78895 | 103.96636 | 13872 ft | 336 kts | 270° |
| 2026-05-05 08:31 | 36.78860 | 103.93941 | 13585 ft | 321 kts | 266° |
| 2026-05-05 08:31 | 36.78760 | 103.91364 | 13389 ft | 305 kts | 266° |
| 2026-05-05 08:31 | 36.78660 | 103.88908 | 13339 ft | 292 kts | 266° |
| 2026-05-05 08:31 | 36.78569 | 103.86635 | 13010 ft | 287 kts | 266° |
| 2026-05-05 08:32 | 36.78474 | 103.84219 | 12542 ft | 288 kts | 266° |
| 2026-05-05 08:32 | 36.78380 | 103.81808 | 12096 ft | 288 kts | 267° |
| 2026-05-05 08:32 | 36.78291 | 103.79525 | 11728 ft | 285 kts | 267° |
| 2026-05-05 08:32 | 36.78198 | 103.77148 | 11261 ft | 286 kts | 268° |
| 2026-05-05 08:33 | 36.78101 | 103.74709 | 10802 ft | 286 kts | 268° |
| 2026-05-05 08:33 | 36.78006 | 103.72336 | 10399 ft | 284 kts | 268° |
| 2026-05-05 08:33 | 36.77912 | 103.69981 | 10114 ft | 282 kts | 268° |
| 2026-05-05 08:33 | 36.77783 | 103.67727 | 10040 ft | 271 kts | 260° |
| 2026-05-05 08:34 | 36.77102 | 103.65734 | 10014 ft | 259 kts | 232° |
| 2026-05-05 08:34 | 36.75873 | 103.64273 | 10022 ft | 256 kts | 211° |
| 2026-05-05 08:34 | 36.74321 | 103.63431 | 9794 ft | 251 kts | 190° |
| 2026-05-05 08:34 | 36.72622 | 103.63288 | 9535 ft | 243 kts | 177° |
| 2026-05-05 08:35 | 36.71012 | 103.63339 | 9514 ft | 228 kts | 175° |
| 2026-05-05 08:35 | 36.69450 | 103.63416 | 9264 ft | 228 kts | 175° |
| 2026-05-05 08:35 | 36.67920 | 103.63511 | 8991 ft | 227 kts | 174° |
| 2026-05-05 08:35 | 36.66431 | 103.63611 | 8724 ft | 226 kts | 174° |
| 2026-05-05 08:36 | 36.64923 | 103.63712 | 8452 ft | 211 kts | 174° |
| 2026-05-05 08:36 | 36.63545 | 103.63803 | 8205 ft | 197 kts | 174° |
| 2026-05-05 08:36 | 36.62219 | 103.63891 | 7969 ft | 187 kts | 174° |
| 2026-05-05 08:36 | 36.60972 | 103.63970 | 7729 ft | 171 kts | 173° |
| 2026-05-05 08:37 | 36.59863 | 103.64043 | 7535 ft | 167 kts | 173° |
| 2026-05-05 08:37 | 36.58816 | 103.64110 | 7349 ft | 163 kts | 174° |
| 2026-05-05 08:37 | 36.57776 | 103.64175 | 7149 ft | 161 kts | 175° |
| 2026-05-05 08:37 | 36.56774 | 103.64244 | 6949 ft | 158 kts | 175° |
| 2026-05-05 08:38 | 36.55764 | 103.64298 | 6785 ft | 158 kts | 176° |
| 2026-05-05 08:38 | 36.54743 | 103.64359 | 6596 ft | 160 kts | 175° |
| 2026-05-05 08:38 | 36.53728 | 103.64447 | 6434 ft | 157 kts | 177° |
| 2026-05-05 08:38 | 36.52737 | 103.64509 | 6392 ft | 146 kts | 179° |
| 2026-05-05 08:39 | 36.52010 | 103.64545 | 6380 ft | 79 kts | 177° |
| 2026-05-05 08:39 | 36.51648 | 103.64560 | 6373 ft | 28 kts | 184° |
| 2026-05-05 08:39 | 36.51479 | 103.64510 | 6371 ft | 27 kts | 202° |
| 2026-05-05 08:39 | 36.51378 | 103.64451 | 6369 ft | 14 kts | 223° |
| 2026-05-05 08:40 | 36.51404 | 103.64383 | 6369 ft | 12 kts | 346° |
| 2026-05-05 08:40 | 36.51449 | 103.64378 | 6370 ft | 5 kts | 355° |
| 2026-05-05 08:40 | 36.51479 | 103.64374 | 6371 ft | 4 kts | 354° |
| 2026-05-05 08:40 | 36.51491 | 103.64365 | 6371 ft | 1 kts | 308° |
| 2026-05-05 08:41 | 36.51496 | 103.64352 | 6371 ft | 2 kts | 298° |
| 2026-05-05 08:41 | 36.51502 | 103.64335 | 6371 ft | 2 kts | 287° |
| 2026-05-05 08:41 | 36.51507 | 103.64311 | 6370 ft | 3 kts | 290° |
| 2026-05-05 08:41 | 36.51520 | 103.64292 | 6370 ft | 3 kts | 322° |
| 2026-05-05 08:42 | 36.51535 | 103.64283 | 6371 ft | 2 kts | 343° |
| 2026-05-05 08:42 | 36.51547 | 103.64280 | 6371 ft | 1 kts | 352° |
| 2026-05-05 08:42 | 36.51554 | 103.64278 | 6371 ft | 1 kts | 352° |
| 2026-05-05 08:42 | 36.51559 | 103.64278 | 6371 ft | 0 kts | 354° |
| 2026-05-05 08:43 | 36.51560 | 103.64278 | 6371 ft | 0 kts | 354° |
| 2026-05-05 08:44 | 36.51587 | 103.64275 | 6372 ft | 9 kts | 355° |
| 2026-05-05 08:44 | 36.51644 | 103.64270 | 6373 ft | 8 kts | 357° |
| 2026-05-05 08:44 | 36.51693 | 103.64267 | 6374 ft | 7 kts | 358° |
| 2026-05-05 08:44 | 36.51733 | 103.64265 | 6374 ft | 6 kts | 359° |
| 2026-05-05 08:45 | 36.51769 | 103.64265 | 6375 ft | 5 kts | 359° |
| 2026-05-05 08:45 | 36.51808 | 103.64262 | 6376 ft | 7 kts | 357° |
| 2026-05-05 08:45 | 36.51860 | 103.64259 | 6378 ft | 7 kts | 357° |
| 2026-05-05 08:45 | 36.51894 | 103.64256 | 6381 ft | 4 kts | 356° |
| 2026-05-05 08:46 | 36.51916 | 103.64255 | 6381 ft | 3 kts | 356° |
| 2026-05-05 08:46 | 36.51941 | 103.64253 | 6381 ft | 5 kts | 356° |
| 2026-05-05 08:46 | 36.51990 | 103.64248 | 6382 ft | 10 kts | 356° |
| 2026-05-05 08:46 | 36.52064 | 103.64243 | 6382 ft | 11 kts | 357° |
| 2026-05-05 08:47 | 36.52129 | 103.64238 | 6383 ft | 9 kts | 353° |
| 2026-05-05 08:47 | 36.52150 | 103.64183 | 6383 ft | 10 kts | 270° |
| 2026-05-05 08:47 | 36.52178 | 103.64101 | 6383 ft | 13 kts | 305° |
| 2026-05-05 08:47 | 36.52192 | 103.64075 | 6383 ft | 2 kts | 307° |
| 2026-05-05 08:48 | 36.52211 | 103.64046 | 6383 ft | 7 kts | 308° |
| 2026-05-05 08:48 | 36.52243 | 103.63995 | 6383 ft | 8 kts | 308° |
| 2026-05-05 08:48 | 36.52276 | 103.63942 | 6383 ft | 8 kts | 308° |
| 2026-05-05 08:48 | 36.52316 | 103.63895 | 6383 ft | 9 kts | 332° |
| 2026-05-05 08:49 | 36.52349 | 103.63876 | 6383 ft | 2 kts | 329° |
| 2026-05-05 08:49 | 36.52358 | 103.63866 | 6383 ft | 1 kts | 313° |
| 2026-05-05 08:49 | 36.52362 | 103.63854 | 6383 ft | 1 kts | 279° |
| 2026-05-05 08:49 | 36.52361 | 103.63836 | 6383 ft | 2 kts | 264° |
| 2026-05-05 08:50 | 36.52359 | 103.63811 | 6383 ft | 3 kts | 265° |
| 2026-05-05 08:50 | 36.52357 | 103.63783 | 6384 ft | 1 kts | 263° |
| 2026-05-05 08:50 | 36.52356 | 103.63773 | 6384 ft | 1 kts | 263° |
| 2026-05-05 08:50 | 36.52354 | 103.63763 | 6384 ft | 0 kts | 263° |
| 2026-05-05 08:51 | 36.52354 | 103.63761 | 6384 ft | 0 kts | 263° |
| 2026-05-05 08:51 | 36.52354 | 103.63759 | 6384 ft | 0 kts | 263° |